Sao Paulo, Brazil

1:58 AM BRT on May 23, 2015 (GMT -0300)
Congonhas International | | Change Station
CLOSE
Current Station
Airport
Location: Sao Paulo,
Elevation: 2635 ft
Nearby Weather Stations

Elev 2635 ft 23.63 °S, 46.66 °W | Updated 58 minutes ago

Clear
Clear
68 °F
Feels Like 68 °F
N
2
Wind Variable Wind from Variable

Today
High -- | Low -- °F
--% Chance of Precip.
Yesterday
High -- | Low -- °F
Precip. -- in
6:37 AM 5:29 PM
Waxing Crescent, 27% visible
Pressure 30.21 in
Visibility 4.3 miles
Clouds
Dew Point 61 °F
Humidity 78%
Rainfall 0.00 in
Snow Depth Not available.
UV Not available.
Pollen Not available.
Air Quality Not available.
Flu Activity Not available.
METAR SBSP 230400Z AUTO VRB02KT 7000 NCD 20/16 Q1023

More Conditions Fewer Conditions

Pressure 30.21 in
Visibility 4.3 miles
Clouds
Dew Point 61 °F
Humidity 78%
Rainfall 0.00 in
Snow Depth Not available.
UV Not available.
Pollen Not available.
Air Quality Not available.
Flu Activity Not available.
METAR SBSP 230400Z AUTO VRB02KT 7000 NCD 20/16 Q1023

More Conditions Fewer Conditions

10-Day Weather Forecast

Almanac

Astronomy

May. 23, 2015 Rise Set
Actual Time
Civil Twilight
Nautical Twilight
Astronomical Twilight
Moon
Length of Visible Light
Length of Day
Tomorrow will be .
, % of the Moon is Illuminated

Today's Extremes

Country Highs Country Lows

Community

WunderPhotos

Upload Photos

1,823,387 photos uploaded!

WunderBlogs® & News

Nearby

Air Quality

  Air Quality AQ Index Pollutant
Not available.

Snow Depth

Station Depth Elevation

Earthquake Activity

City Distance Mag. Time & Date
Minimum magnitude displayed is 2.5.

Coastal Water Temperatures

Place Temperature

Stations

Nearby Weather Stations

Station Location Temp. Windchill Dew Point Humidity Wind Precip. Elev Updated Type